Pilot Station, Alaska
Current Conditions -  °F | °C
As of 3:56 PM on Wednesday 22 Oct 2014 (Local Time) from PASM Reporting Station
Clear Clear  
Wind Chill: -5°   Ceiling: Unl
Heat Index:   Visibility: 10mi
Dew Point: -4°   Wind: 10mph
Humidity: 75%   Direction: 340°NNW
Pressure: 29.84"   Gusts: NA
Location:  61.94°N, 162.88°W
Report Text: PASM 222356Z AUTO 34009KT 10SM CLR 00/M04 A2984 RMK AO1 10000 21020 400001070 52007
Loading
Personal Weather Stations






























Interactive Weather Map
Tropical Storm Tracking
New forecast layout! Learn more

10-Day Weather Forecast

Advertisements
Track Severe Weather on mobile